sensor_id;sensor_type;location;lat;lon;timestamp;temperature;humidity
5027;DHT22;2532;52.480;13.354;2023-06-19T04:01:30;21.20;93.70
5027;DHT22;2532;52.480;13.354;2023-06-19T04:04:14;21.20;93.60
5027;DHT22;2532;52.480;13.354;2023-06-19T04:07:18;21.20;93.50
5027;DHT22;2532;52.480;13.354;2023-06-19T04:10:08;21.20;93.30
5027;DHT22;2532;52.480;13.354;2023-06-19T04:13:19;21.30;93.40
5027;DHT22;2532;52.480;13.354;2023-06-19T04:16:23;21.30;93.30
5027;DHT22;2532;52.480;13.354;2023-06-19T04:22:26;21.40;93.50
5027;DHT22;2532;52.480;13.354;2023-06-19T04:25:12;21.40;93.10
5027;DHT22;2532;52.480;13.354;2023-06-19T04:28:16;21.30;93.10
5027;DHT22;2532;52.480;13.354;2023-06-19T04:31:19;21.40;93.20
5027;DHT22;2532;52.480;13.354;2023-06-19T04:34:30;21.40;93.20
5027;DHT22;2532;52.480;13.354;2023-06-19T04:37:11;21.40;93.10
5027;DHT22;2532;52.480;13.354;2023-06-19T04:40:16;21.40;93.10
5027;DHT22;2532;52.480;13.354;2023-06-19T04:43:12;21.50;93.20
5027;DHT22;2532;52.480;13.354;2023-06-19T04:48:23;21.50;93.00
5027;DHT22;2532;52.480;13.354;2023-06-19T04:50:51;21.50;93.00
5027;DHT22;2532;52.480;13.354;2023-06-19T04:53:21;21.60;93.10
5027;DHT22;2532;52.480;13.354;2023-06-19T04:55:50;21.60;93.10
5027;DHT22;2532;52.480;13.354;2023-06-19T04:58:20;21.60;93.10
5027;DHT22;2532;52.480;13.354;2023-06-19T05:00:47;21.60;93.00
5027;DHT22;2532;52.480;13.354;2023-06-19T05:03:16;21.60;92.90
5027;DHT22;2532;52.480;13.354;2023-06-19T05:05:44;21.60;93.00
5027;DHT22;2532;52.480;13.354;2023-06-19T05:08:12;21.60;93.10
5027;DHT22;2532;52.480;13.354;2023-06-19T05:10:39;21.60;93.20
5027;DHT22;2532;52.480;13.354;2023-06-19T05:13:07;21.60;93.30
5027;DHT22;2532;52.480;13.354;2023-06-19T05:15:34;21.60;93.40
5027;DHT22;2532;52.480;13.354;2023-06-19T05:18:01;21.60;93.40
5027;DHT22;2532;52.480;13.354;2023-06-19T05:20:28;21.60;93.40
5027;DHT22;2532;52.480;13.354;2023-06-19T05:22:55;21.70;93.40
5027;DHT22;2532;52.480;13.354;2023-06-19T05:25:22;21.60;93.30
5027;DHT22;2532;52.480;13.354;2023-06-19T05:27:49;21.70;93.50
5027;DHT22;2532;52.480;13.354;2023-06-19T05:30:17;21.70;93.50
5027;DHT22;2532;52.480;13.354;2023-06-19T05:32:44;21.70;93.40
5027;DHT22;2532;52.480;13.354;2023-06-19T05:35:11;21.70;93.50
5027;DHT22;2532;52.480;13.354;2023-06-19T05:37:38;21.70;93.50
5027;DHT22;2532;52.480;13.354;2023-06-19T05:40:09;21.70;93.50
5027;DHT22;2532;52.480;13.354;2023-06-19T05:42:36;21.80;93.50
5027;DHT22;2532;52.480;13.354;2023-06-19T05:45:03;21.80;93.40
5027;DHT22;2532;52.480;13.354;2023-06-19T05:47:32;21.80;93.30
5027;DHT22;2532;52.480;13.354;2023-06-19T05:49:59;21.80;93.40
5027;DHT22;2532;52.480;13.354;2023-06-19T05:52:26;21.90;93.30
5027;DHT22;2532;52.480;13.354;2023-06-19T05:54:53;21.90;93.30
5027;DHT22;2532;52.480;13.354;2023-06-19T05:57:20;21.80;93.40
5027;DHT22;2532;52.480;13.354;2023-06-19T05:59:47;21.90;93.60
5027;DHT22;2532;52.480;13.354;2023-06-19T06:02:14;21.80;93.50
5027;DHT22;2532;52.480;13.354;2023-06-19T06:04:42;21.80;93.60
5027;DHT22;2532;52.480;13.354;2023-06-19T06:07:09;21.80;93.80
5027;DHT22;2532;52.480;13.354;2023-06-19T06:09:36;21.90;93.80
5027;DHT22;2532;52.480;13.354;2023-06-19T06:12:03;21.90;93.80
5027;DHT22;2532;52.480;13.354;2023-06-19T06:14:30;21.90;93.80
5027;DHT22;2532;52.480;13.354;2023-06-19T06:16:57;21.90;93.70
5027;DHT22;2532;52.480;13.354;2023-06-19T06:19:25;21.90;93.60
5027;DHT22;2532;52.480;13.354;2023-06-19T06:21:53;21.90;93.60
5027;DHT22;2532;52.480;13.354;2023-06-19T06:24:20;22.00;93.60
5027;DHT22;2532;52.480;13.354;2023-06-19T06:26:47;22.00;93.50
5027;DHT22;2532;52.480;13.354;2023-06-19T06:29:13;22.00;93.50
5027;DHT22;2532;52.480;13.354;2023-06-19T06:31:40;22.00;93.50
5027;DHT22;2532;52.480;13.354;2023-06-19T06:34:08;22.10;93.60
5027;DHT22;2532;52.480;13.354;2023-06-19T06:36:35;22.10;93.50
5027;DHT22;2532;52.480;13.354;2023-06-19T06:39:03;22.20;93.60
5027;DHT22;2532;52.480;13.354;2023-06-19T06:41:31;22.20;93.50
5027;DHT22;2532;52.480;13.354;2023-06-19T06:43:58;22.30;93.50
5027;DHT22;2532;52.480;13.354;2023-06-19T06:46:25;22.30;93.40
5027;DHT22;2532;52.480;13.354;2023-06-19T06:48:52;22.30;93.30
5027;DHT22;2532;52.480;13.354;2023-06-19T06:51:19;22.40;93.30
5027;DHT22;2532;52.480;13.354;2023-06-19T06:53:47;22.40;93.20
5027;DHT22;2532;52.480;13.354;2023-06-19T06:56:15;22.50;93.10
5027;DHT22;2532;52.480;13.354;2023-06-19T06:58:42;22.50;93.10
5027;DHT22;2532;52.480;13.354;2023-06-19T07:01:11;22.60;93.20
5027;DHT22;2532;52.480;13.354;2023-06-19T07:03:38;22.60;93.20
5027;DHT22;2532;52.480;13.354;2023-06-19T07:06:05;22.60;93.10
5027;DHT22;2532;52.480;13.354;2023-06-19T07:08:32;22.70;93.10
5027;DHT22;2532;52.480;13.354;2023-06-19T07:10:59;22.70;93.00
5027;DHT22;2532;52.480;13.354;2023-06-19T07:13:27;22.80;93.10
5027;DHT22;2532;52.480;13.354;2023-06-19T07:15:54;22.80;93.10
5027;DHT22;2532;52.480;13.354;2023-06-19T07:18:21;22.80;93.10
5027;DHT22;2532;52.480;13.354;2023-06-19T07:20:48;22.90;93.10
5027;DHT22;2532;52.480;13.354;2023-06-19T07:23:15;23.00;93.00
5027;DHT22;2532;52.480;13.354;2023-06-19T07:25:42;23.00;92.90
5027;DHT22;2532;52.480;13.354;2023-06-19T07:28:09;23.10;93.00
5027;DHT22;2532;52.480;13.354;2023-06-19T07:30:38;23.20;93.00
5027;DHT22;2532;52.480;13.354;2023-06-19T07:33:05;23.30;93.20
5027;DHT22;2532;52.480;13.354;2023-06-19T07:35:32;23.40;92.70
5027;DHT22;2532;52.480;13.354;2023-06-19T07:37:59;23.60;92.40
5027;DHT22;2532;52.480;13.354;2023-06-19T07:40:26;23.70;92.00
5027;DHT22;2532;52.480;13.354;2023-06-19T07:42:53;23.80;92.10
5027;DHT22;2532;52.480;13.354;2023-06-19T07:45:20;24.00;91.90
5027;DHT22;2532;52.480;13.354;2023-06-19T07:47:55;24.10;91.40
5027;DHT22;2532;52.480;13.354;2023-06-19T07:50:22;24.20;91.20
5027;DHT22;2532;52.480;13.354;2023-06-19T07:52:49;24.30;91.30
5027;DHT22;2532;52.480;13.354;2023-06-19T07:55:16;24.40;90.90
5027;DHT22;2532;52.480;13.354;2023-06-19T07:57:43;24.50;90.60
5027;DHT22;2532;52.480;13.354;2023-06-19T08:00:11;24.60;90.70
5027;DHT22;2532;52.480;13.354;2023-06-19T08:02:38;24.70;90.50
5027;DHT22;2532;52.480;13.354;2023-06-19T08:05:08;24.80;90.40
5027;DHT22;2532;52.480;13.354;2023-06-19T08:07:35;24.80;90.30
5027;DHT22;2532;52.480;13.354;2023-06-19T08:10:02;24.80;90.20
5027;DHT22;2532;52.480;13.354;2023-06-19T08:12:30;24.80;90.10
5027;DHT22;2532;52.480;13.354;2023-06-19T08:14:57;24.80;90.00
5027;DHT22;2532;52.480;13.354;2023-06-19T08:17:24;24.90;90.00
5027;DHT22;2532;52.480;13.354;2023-06-19T08:19:51;25.00;89.60
5027;DHT22;2532;52.480;13.354;2023-06-19T08:22:19;25.00;90.00
5027;DHT22;2532;52.480;13.354;2023-06-19T08:24:47;25.00;89.00
5027;DHT22;2532;52.480;13.354;2023-06-19T08:27:14;25.00;89.60
5027;DHT22;2532;52.480;13.354;2023-06-19T08:29:41;25.10;90.00
5027;DHT22;2532;52.480;13.354;2023-06-19T08:32:08;25.10;89.30
5027;DHT22;2532;52.480;13.354;2023-06-19T08:34:35;25.10;89.40
5027;DHT22;2532;52.480;13.354;2023-06-19T08:37:04;25.10;88.70
5027;DHT22;2532;52.480;13.354;2023-06-19T08:39:32;25.10;88.50
5027;DHT22;2532;52.480;13.354;2023-06-19T08:41:59;25.20;88.80
5027;DHT22;2532;52.480;13.354;2023-06-19T08:44:26;25.20;89.00
5027;DHT22;2532;52.480;13.354;2023-06-19T08:46:53;25.20;88.80
5027;DHT22;2532;52.480;13.354;2023-06-19T08:49:20;25.20;88.50
5027;DHT22;2532;52.480;13.354;2023-06-19T08:51:47;25.30;88.80
5027;DHT22;2532;52.480;13.354;2023-06-19T08:54:14;25.30;89.20
5027;DHT22;2532;52.480;13.354;2023-06-19T08:56:42;25.30;89.10
5027;DHT22;2532;52.480;13.354;2023-06-19T08:59:10;25.30;89.00
5027;DHT22;2532;52.480;13.354;2023-06-19T09:01:37;25.40;89.20
5027;DHT22;2532;52.480;13.354;2023-06-19T09:04:11;25.40;89.20
5027;DHT22;2532;52.480;13.354;2023-06-19T09:06:48;25.40;89.40
5027;DHT22;2532;52.480;13.354;2023-06-19T09:09:14;25.50;89.80
5027;DHT22;2532;52.480;13.354;2023-06-19T09:11:43;25.60;89.60
5027;DHT22;2532;52.480;13.354;2023-06-19T09:14:10;25.60;89.50
5027;DHT22;2532;52.480;13.354;2023-06-19T09:16:38;25.70;90.00
5027;DHT22;2532;52.480;13.354;2023-06-19T09:19:06;25.80;89.40
5027;DHT22;2532;52.480;13.354;2023-06-19T09:21:35;25.80;88.70
5027;DHT22;2532;52.480;13.354;2023-06-19T09:24:04;25.90;88.60
5027;DHT22;2532;52.480;13.354;2023-06-19T09:26:31;25.90;88.40
5027;DHT22;2532;52.480;13.354;2023-06-19T09:29:09;26.00;88.60
5027;DHT22;2532;52.480;13.354;2023-06-19T09:31:36;26.00;87.60
5027;DHT22;2532;52.480;13.354;2023-06-19T09:34:05;26.10;86.70
5027;DHT22;2532;52.480;13.354;2023-06-19T09:36:32;26.10;87.00
5027;DHT22;2532;52.480;13.354;2023-06-19T09:39:00;26.10;87.60
5027;DHT22;2532;52.480;13.354;2023-06-19T09:41:29;26.10;88.00
5027;DHT22;2532;52.480;13.354;2023-06-19T09:43:56;26.20;88.50
5027;DHT22;2532;52.480;13.354;2023-06-19T09:46:30;26.30;88.00
5027;DHT22;2532;52.480;13.354;2023-06-19T09:49:00;26.30;87.10
5027;DHT22;2532;52.480;13.354;2023-06-19T09:51:31;26.30;86.80
5027;DHT22;2532;52.480;13.354;2023-06-19T09:53:59;26.30;87.60
5027;DHT22;2532;52.480;13.354;2023-06-19T09:56:31;26.40;88.10
5027;DHT22;2532;52.480;13.354;2023-06-19T09:59:00;26.40;87.90
5027;DHT22;2532;52.480;13.354;2023-06-19T10:01:30;26.40;87.90
5027;DHT22;2532;52.480;13.354;2023-06-19T10:04:04;26.40;87.80
5027;DHT22;2532;52.480;13.354;2023-06-19T10:06:32;26.30;87.60
5027;DHT22;2532;52.480;13.354;2023-06-19T10:09:06;26.30;87.80
5027;DHT22;2532;52.480;13.354;2023-06-19T10:11:51;26.30;87.70
5027;DHT22;2532;52.480;13.354;2023-06-19T10:14:18;26.40;88.00
5027;DHT22;2532;52.480;13.354;2023-06-19T10:16:47;26.30;87.40
5027;DHT22;2532;52.480;13.354;2023-06-19T10:19:15;26.30;87.50
5027;DHT22;2532;52.480;13.354;2023-06-19T10:21:47;26.30;87.40
5027;DHT22;2532;52.480;13.354;2023-06-19T10:24:15;26.40;87.40
5027;DHT22;2532;52.480;13.354;2023-06-19T10:26:55;26.40;86.90
5027;DHT22;2532;52.480;13.354;2023-06-19T10:29:23;26.40;87.40
5027;DHT22;2532;52.480;13.354;2023-06-19T10:31:52;26.50;88.00
5027;DHT22;2532;52.480;13.354;2023-06-19T10:34:19;26.50;88.50
5027;DHT22;2532;52.480;13.354;2023-06-19T10:36:46;26.50;88.90
5027;DHT22;2532;52.480;13.354;2023-06-19T10:39:13;26.50;89.10
5027;DHT22;2532;52.480;13.354;2023-06-19T10:41:41;26.50;88.90
5027;DHT22;2532;52.480;13.354;2023-06-19T10:44:08;26.60;88.40
5027;DHT22;2532;52.480;13.354;2023-06-19T10:46:38;26.60;88.70
5027;DHT22;2532;52.480;13.354;2023-06-19T10:49:08;26.60;88.90
5027;DHT22;2532;52.480;13.354;2023-06-19T10:51:37;26.70;87.70
5027;DHT22;2532;52.480;13.354;2023-06-19T10:54:05;26.80;87.10
5027;DHT22;2532;52.480;13.354;2023-06-19T10:56:33;26.80;86.40
5027;DHT22;2532;52.480;13.354;2023-06-19T10:59:01;26.90;85.90
5027;DHT22;2532;52.480;13.354;2023-06-19T11:01:35;26.90;86.10
5027;DHT22;2532;52.480;13.354;2023-06-19T11:04:03;26.90;86.40
5027;DHT22;2532;52.480;13.354;2023-06-19T11:06:32;26.90;86.10
5027;DHT22;2532;52.480;13.354;2023-06-19T11:08:59;27.00;84.90
5027;DHT22;2532;52.480;13.354;2023-06-19T11:11:35;27.00;84.10
5027;DHT22;2532;52.480;13.354;2023-06-19T11:14:04;27.10;84.10
5027;DHT22;2532;52.480;13.354;2023-06-19T11:16:32;27.10;83.90
5027;DHT22;2532;52.480;13.354;2023-06-19T11:18:59;27.20;84.10
5027;DHT22;2532;52.480;13.354;2023-06-19T11:21:32;27.20;85.00
5027;DHT22;2532;52.480;13.354;2023-06-19T11:24:00;27.20;83.70
5027;DHT22;2532;52.480;13.354;2023-06-19T11:26:28;27.20;84.00
5027;DHT22;2532;52.480;13.354;2023-06-19T11:28:54;27.20;83.70
5027;DHT22;2532;52.480;13.354;2023-06-19T11:31:25;27.30;83.60
5027;DHT22;2532;52.480;13.354;2023-06-19T11:33:57;27.30;83.50
5027;DHT22;2532;52.480;13.354;2023-06-19T11:36:24;27.40;84.00
5027;DHT22;2532;52.480;13.354;2023-06-19T11:38:52;27.40;83.70
5027;DHT22;2532;52.480;13.354;2023-06-19T11:41:26;27.50;83.70
5027;DHT22;2532;52.480;13.354;2023-06-19T11:44:00;27.60;83.00
5027;DHT22;2532;52.480;13.354;2023-06-19T11:46:30;27.70;82.10
5027;DHT22;2532;52.480;13.354;2023-06-19T11:49:07;27.90;80.30
5027;DHT22;2532;52.480;13.354;2023-06-19T11:51:35;27.90;80.30
5027;DHT22;2532;52.480;13.354;2023-06-19T11:54:05;28.10;80.40
5027;DHT22;2532;52.480;13.354;2023-06-19T11:56:33;28.20;78.90
5027;DHT22;2532;52.480;13.354;2023-06-19T11:59:00;28.30;78.70
5027;DHT22;2532;52.480;13.354;2023-06-19T12:01:27;28.50;77.70
5027;DHT22;2532;52.480;13.354;2023-06-19T12:03:54;28.60;77.60
5027;DHT22;2532;52.480;13.354;2023-06-19T12:06:21;28.60;76.20
5027;DHT22;2532;52.480;13.354;2023-06-19T12:08:48;28.60;76.10
5027;DHT22;2532;52.480;13.354;2023-06-19T12:11:17;28.60;76.00
5027;DHT22;2532;52.480;13.354;2023-06-19T12:13:44;28.60;75.10
5027;DHT22;2532;52.480;13.354;2023-06-19T12:16:11;28.70;74.30
5027;DHT22;2532;52.480;13.354;2023-06-19T12:18:38;28.70;74.10
5027;DHT22;2532;52.480;13.354;2023-06-19T12:21:05;28.70;74.10
5027;DHT22;2532;52.480;13.354;2023-06-19T12:23:32;28.80;73.80
5027;DHT22;2532;52.480;13.354;2023-06-19T12:26:02;28.80;74.10
5027;DHT22;2532;52.480;13.354;2023-06-19T12:28:30;28.90;73.20
5027;DHT22;2532;52.480;13.354;2023-06-19T12:30:57;29.00;73.80
5027;DHT22;2532;52.480;13.354;2023-06-19T12:33:24;29.00;73.00
5027;DHT22;2532;52.480;13.354;2023-06-19T12:35:51;29.10;73.50
5027;DHT22;2532;52.480;13.354;2023-06-19T12:38:18;29.10;73.60
5027;DHT22;2532;52.480;13.354;2023-06-19T12:40:45;29.10;73.10
5027;DHT22;2532;52.480;13.354;2023-06-19T12:43:12;29.20;72.90
5027;DHT22;2532;52.480;13.354;2023-06-19T12:45:42;29.20;73.20
5027;DHT22;2532;52.480;13.354;2023-06-19T12:48:10;29.30;72.00
5027;DHT22;2532;52.480;13.354;2023-06-19T12:50:37;29.30;71.90
5027;DHT22;2532;52.480;13.354;2023-06-19T12:53:04;29.40;72.40
5027;DHT22;2532;52.480;13.354;2023-06-19T12:55:31;29.50;71.60
5027;DHT22;2532;52.480;13.354;2023-06-19T12:57:58;29.70;70.80
5027;DHT22;2532;52.480;13.354;2023-06-19T13:00:25;29.80;69.00
5027;DHT22;2532;52.480;13.354;2023-06-19T13:02:53;29.90;69.70
5027;DHT22;2532;52.480;13.354;2023-06-19T13:05:20;30.00;68.50
5027;DHT22;2532;52.480;13.354;2023-06-19T13:07:47;30.10;68.50
5027;DHT22;2532;52.480;13.354;2023-06-19T13:10:14;30.10;68.10
5027;DHT22;2532;52.480;13.354;2023-06-19T13:12:41;30.20;68.60
5027;DHT22;2532;52.480;13.354;2023-06-19T13:15:09;30.30;68.50
5027;DHT22;2532;52.480;13.354;2023-06-19T13:17:36;30.30;67.60
5027;DHT22;2532;52.480;13.354;2023-06-19T13:20:06;30.30;67.90
5027;DHT22;2532;52.480;13.354;2023-06-19T13:22:33;30.40;67.20
5027;DHT22;2532;52.480;13.354;2023-06-19T13:25:00;30.30;67.20
5027;DHT22;2532;52.480;13.354;2023-06-19T13:27:28;30.40;67.50
5027;DHT22;2532;52.480;13.354;2023-06-19T13:29:55;30.40;68.20
5027;DHT22;2532;52.480;13.354;2023-06-19T13:32:22;30.40;67.90
5027;DHT22;2532;52.480;13.354;2023-06-19T13:34:49;30.40;68.50
5027;DHT22;2532;52.480;13.354;2023-06-19T13:37:17;30.50;66.80
5027;DHT22;2532;52.480;13.354;2023-06-19T13:39:44;30.60;66.30
5027;DHT22;2532;52.480;13.354;2023-06-19T13:42:11;30.70;66.60
5027;DHT22;2532;52.480;13.354;2023-06-19T13:44:38;30.80;67.40
5027;DHT22;2532;52.480;13.354;2023-06-19T13:47:06;31.00;68.10
5027;DHT22;2532;52.480;13.354;2023-06-19T13:49:33;31.10;67.90
5027;DHT22;2532;52.480;13.354;2023-06-19T13:52:00;31.20;67.10
5027;DHT22;2532;52.480;13.354;2023-06-19T13:54:36;31.30;66.60
5027;DHT22;2532;52.480;13.354;2023-06-19T13:57:11;31.20;66.30
5027;DHT22;2532;52.480;13.354;2023-06-19T13:59:47;31.20;66.70
5027;DHT22;2532;52.480;13.354;2023-06-19T14:02:21;31.10;66.40
5027;DHT22;2532;52.480;13.354;2023-06-19T14:04:48;31.00;67.10
5027;DHT22;2532;52.480;13.354;2023-06-19T14:07:15;30.90;66.80
5027;DHT22;2532;52.480;13.354;2023-06-19T14:09:45;30.80;67.20
5027;DHT22;2532;52.480;13.354;2023-06-19T14:12:13;30.80;66.10
5027;DHT22;2532;52.480;13.354;2023-06-19T14:14:40;30.80;66.20
5027;DHT22;2532;52.480;13.354;2023-06-19T14:17:08;30.90;66.40
5027;DHT22;2532;52.480;13.354;2023-06-19T14:19:35;30.90;66.90
5027;DHT22;2532;52.480;13.354;2023-06-19T14:22:02;31.00;65.90
5027;DHT22;2532;52.480;13.354;2023-06-19T14:24:29;31.00;64.70
5027;DHT22;2532;52.480;13.354;2023-06-19T14:26:57;31.00;64.90
5027;DHT22;2532;52.480;13.354;2023-06-19T14:29:24;31.20;64.50
5027;DHT22;2532;52.480;13.354;2023-06-19T14:31:51;31.20;64.30
5027;DHT22;2532;52.480;13.354;2023-06-19T14:34:19;31.20;64.80
5027;DHT22;2532;52.480;13.354;2023-06-19T14:36:47;31.20;65.10
5027;DHT22;2532;52.480;13.354;2023-06-19T14:39:14;31.20;63.90
5027;DHT22;2532;52.480;13.354;2023-06-19T14:41:41;31.20;65.20
5027;DHT22;2532;52.480;13.354;2023-06-19T14:44:10;31.20;64.80
5027;DHT22;2532;52.480;13.354;2023-06-19T14:46:37;31.20;64.70
5027;DHT22;2532;52.480;13.354;2023-06-19T14:49:05;31.30;63.90
5027;DHT22;2532;52.480;13.354;2023-06-19T14:51:32;31.30;64.00
5027;DHT22;2532;52.480;13.354;2023-06-19T14:54:00;31.40;64.00
5027;DHT22;2532;52.480;13.354;2023-06-19T14:56:27;31.50;63.30
5027;DHT22;2532;52.480;13.354;2023-06-19T14:58:55;31.60;64.70
5027;DHT22;2532;52.480;13.354;2023-06-19T15:01:23;31.80;63.90
5027;DHT22;2532;52.480;13.354;2023-06-19T15:03:50;32.10;62.50
5027;DHT22;2532;52.480;13.354;2023-06-19T15:06:17;32.20;60.40
5027;DHT22;2532;52.480;13.354;2023-06-19T15:08:44;32.20;60.20
5027;DHT22;2532;52.480;13.354;2023-06-19T15:11:11;32.30;61.60
5027;DHT22;2532;52.480;13.354;2023-06-19T15:13:38;32.40;61.00
5027;DHT22;2532;52.480;13.354;2023-06-19T15:16:05;32.60;60.20
5027;DHT22;2532;52.480;13.354;2023-06-19T15:18:34;32.70;59.00
5027;DHT22;2532;52.480;13.354;2023-06-19T15:21:01;32.80;59.20
5027;DHT22;2532;52.480;13.354;2023-06-19T15:23:30;32.90;58.50
5027;DHT22;2532;52.480;13.354;2023-06-19T15:25:57;32.80;58.10
5027;DHT22;2532;52.480;13.354;2023-06-19T15:28:24;32.70;58.10
5027;DHT22;2532;52.480;13.354;2023-06-19T15:30:51;32.70;59.80
5027;DHT22;2532;52.480;13.354;2023-06-19T15:33:18;32.70;58.80
5027;DHT22;2532;52.480;13.354;2023-06-19T15:35:46;32.70;58.00
5027;DHT22;2532;52.480;13.354;2023-06-19T15:38:13;32.80;58.40
5027;DHT22;2532;52.480;13.354;2023-06-19T15:40:40;32.80;57.80
5027;DHT22;2532;52.480;13.354;2023-06-19T15:43:07;32.80;57.00
5027;DHT22;2532;52.480;13.354;2023-06-19T15:45:34;32.80;57.40
5027;DHT22;2532;52.480;13.354;2023-06-19T15:48:01;32.70;56.90
5027;DHT22;2532;52.480;13.354;2023-06-19T15:50:28;32.70;57.40
5027;DHT22;2532;52.480;13.354;2023-06-19T15:52:56;32.70;57.20
5027;DHT22;2532;52.480;13.354;2023-06-19T15:55:23;32.70;56.80
5027;DHT22;2532;52.480;13.354;2023-06-19T15:57:50;32.90;57.20
5027;DHT22;2532;52.480;13.354;2023-06-19T16:00:18;33.00;56.60
5027;DHT22;2532;52.480;13.354;2023-06-19T16:02:45;33.10;55.90
5027;DHT22;2532;52.480;13.354;2023-06-19T16:05:13;33.10;55.50
5027;DHT22;2532;52.480;13.354;2023-06-19T16:07:40;33.10;55.80
5027;DHT22;2532;52.480;13.354;2023-06-19T16:10:10;33.10;56.70
5027;DHT22;2532;52.480;13.354;2023-06-19T16:12:37;33.10;56.20
5027;DHT22;2532;52.480;13.354;2023-06-19T16:15:05;33.00;55.60
5027;DHT22;2532;52.480;13.354;2023-06-19T16:17:32;33.00;55.30
5027;DHT22;2532;52.480;13.354;2023-06-19T16:19:59;33.00;56.60
5027;DHT22;2532;52.480;13.354;2023-06-19T16:22:26;33.10;56.00
5027;DHT22;2532;52.480;13.354;2023-06-19T16:24:53;33.20;55.20
5027;DHT22;2532;52.480;13.354;2023-06-19T16:27:21;33.30;54.50
5027;DHT22;2532;52.480;13.354;2023-06-19T16:29:48;33.30;54.10
5027;DHT22;2532;52.480;13.354;2023-06-19T16:32:15;33.20;54.00
5027;DHT22;2532;52.480;13.354;2023-06-19T16:34:42;33.00;54.00
5027;DHT22;2532;52.480;13.354;2023-06-19T16:37:08;32.90;54.80
5027;DHT22;2532;52.480;13.354;2023-06-19T16:39:35;32.70;54.60
5027;DHT22;2532;52.480;13.354;2023-06-19T16:42:03;32.50;54.70
5027;DHT22;2532;52.480;13.354;2023-06-19T16:44:31;32.30;54.80
5027;DHT22;2532;52.480;13.354;2023-06-19T16:46:58;32.10;55.10
5027;DHT22;2532;52.480;13.354;2023-06-19T16:49:25;31.90;55.30
5027;DHT22;2532;52.480;13.354;2023-06-19T16:51:52;31.80;55.30
5027;DHT22;2532;52.480;13.354;2023-06-19T16:54:19;31.60;55.40
5027;DHT22;2532;52.480;13.354;2023-06-19T16:56:46;31.40;55.30
5027;DHT22;2532;52.480;13.354;2023-06-19T16:59:12;31.20;55.70
5027;DHT22;2532;52.480;13.354;2023-06-19T17:01:41;31.10;55.60
5027;DHT22;2532;52.480;13.354;2023-06-19T17:04:08;31.00;55.60
5027;DHT22;2532;52.480;13.354;2023-06-19T17:06:35;30.90;56.10
5027;DHT22;2532;52.480;13.354;2023-06-19T17:09:02;30.80;56.30
5027;DHT22;2532;52.480;13.354;2023-06-19T17:11:29;30.70;57.00
5027;DHT22;2532;52.480;13.354;2023-06-19T17:13:56;30.70;56.90
5027;DHT22;2532;52.480;13.354;2023-06-19T17:16:23;30.60;57.60
5027;DHT22;2532;52.480;13.354;2023-06-19T17:18:53;30.60;57.10
5027;DHT22;2532;52.480;13.354;2023-06-19T17:21:20;30.60;57.10
5027;DHT22;2532;52.480;13.354;2023-06-19T17:23:46;30.60;57.00
5027;DHT22;2532;52.480;13.354;2023-06-19T17:26:13;30.60;56.60
5027;DHT22;2532;52.480;13.354;2023-06-19T17:28:40;30.60;56.40
5027;DHT22;2532;52.480;13.354;2023-06-19T17:31:07;30.50;56.30
5027;DHT22;2532;52.480;13.354;2023-06-19T17:33:34;30.50;56.50
5027;DHT22;2532;52.480;13.354;2023-06-19T17:36:03;30.40;56.50
5027;DHT22;2532;52.480;13.354;2023-06-19T17:38:30;30.30;57.10
5027;DHT22;2532;52.480;13.354;2023-06-19T17:40:57;30.30;57.30
5027;DHT22;2532;52.480;13.354;2023-06-19T17:43:23;30.30;57.80
5027;DHT22;2532;52.480;13.354;2023-06-19T17:45:50;30.30;58.60
5027;DHT22;2532;52.480;13.354;2023-06-19T17:48:17;30.30;58.60
5027;DHT22;2532;52.480;13.354;2023-06-19T17:50:44;30.30;59.70
5027;DHT22;2532;52.480;13.354;2023-06-19T17:53:13;30.20;60.30
5027;DHT22;2532;52.480;13.354;2023-06-19T17:55:40;30.20;61.30
5027;DHT22;2532;52.480;13.354;2023-06-19T17:58:08;30.10;62.00
5027;DHT22;2532;52.480;13.354;2023-06-19T18:00:35;30.00;62.50
5027;DHT22;2532;52.480;13.354;2023-06-19T18:03:02;29.90;62.90
5027;DHT22;2532;52.480;13.354;2023-06-19T18:05:30;29.90;63.10
5027;DHT22;2532;52.480;13.354;2023-06-19T18:07:56;29.90;63.40
5027;DHT22;2532;52.480;13.354;2023-06-19T18:10:25;29.80;63.50
5027;DHT22;2532;52.480;13.354;2023-06-19T18:12:52;29.70;63.70
5027;DHT22;2532;52.480;13.354;2023-06-19T18:15:18;29.60;63.90
5027;DHT22;2532;52.480;13.354;2023-06-19T18:17:45;29.60;64.00
5027;DHT22;2532;52.480;13.354;2023-06-19T18:20:12;29.60;64.40
5027;DHT22;2532;52.480;13.354;2023-06-19T18:22:39;29.50;64.50
5027;DHT22;2532;52.480;13.354;2023-06-19T18:25:07;29.50;64.70
5027;DHT22;2532;52.480;13.354;2023-06-19T18:27:35;29.50;64.90
5027;DHT22;2532;52.480;13.354;2023-06-19T18:30:05;29.40;65.20
5027;DHT22;2532;52.480;13.354;2023-06-19T18:32:32;29.40;65.40
5027;DHT22;2532;52.480;13.354;2023-06-19T18:34:59;29.40;65.80
5027;DHT22;2532;52.480;13.354;2023-06-19T18:37:26;29.40;65.90
5027;DHT22;2532;52.480;13.354;2023-06-19T18:39:54;29.40;66.10
5027;DHT22;2532;52.480;13.354;2023-06-19T18:42:20;29.30;66.30
5027;DHT22;2532;52.480;13.354;2023-06-19T18:44:50;29.30;66.30
5027;DHT22;2532;52.480;13.354;2023-06-19T18:47:17;29.30;66.50
5027;DHT22;2532;52.480;13.354;2023-06-19T18:49:44;29.20;66.50
5027;DHT22;2532;52.480;13.354;2023-06-19T18:52:11;29.20;66.90
5027;DHT22;2532;52.480;13.354;2023-06-19T18:54:38;29.10;66.90
5027;DHT22;2532;52.480;13.354;2023-06-19T18:57:05;29.10;67.10
5027;DHT22;2532;52.480;13.354;2023-06-19T18:59:32;29.10;67.30
5027;DHT22;2532;52.480;13.354;2023-06-19T19:02:00;29.00;67.40
5027;DHT22;2532;52.480;13.354;2023-06-19T19:04:32;29.00;67.60
5027;DHT22;2532;52.480;13.354;2023-06-19T19:06:59;28.90;67.80
5027;DHT22;2532;52.480;13.354;2023-06-19T19:09:26;28.90;67.80
5027;DHT22;2532;52.480;13.354;2023-06-19T19:11:53;28.80;67.70
5027;DHT22;2532;52.480;13.354;2023-06-19T19:14:20;28.70;67.80
5027;DHT22;2532;52.480;13.354;2023-06-19T19:16:47;28.70;68.00
5027;DHT22;2532;52.480;13.354;2023-06-19T19:19:15;28.60;68.00
5027;DHT22;2532;52.480;13.354;2023-06-19T19:21:42;28.60;68.30
5027;DHT22;2532;52.480;13.354;2023-06-19T19:24:09;28.50;68.40
5027;DHT22;2532;52.480;13.354;2023-06-19T19:26:36;28.50;68.70
5027;DHT22;2532;52.480;13.354;2023-06-19T19:29:03;28.40;68.70
5027;DHT22;2532;52.480;13.354;2023-06-19T19:31:30;28.30;68.80
5027;DHT22;2532;52.480;13.354;2023-06-19T19:33:56;28.30;69.00
5027;DHT22;2532;52.480;13.354;2023-06-19T19:36:25;28.20;69.20
5027;DHT22;2532;52.480;13.354;2023-06-19T19:38:52;28.10;69.50
5027;DHT22;2532;52.480;13.354;2023-06-19T19:41:19;28.10;69.80
5027;DHT22;2532;52.480;13.354;2023-06-19T19:43:45;28.00;69.70
5027;DHT22;2532;52.480;13.354;2023-06-19T19:46:13;28.00;69.80
5027;DHT22;2532;52.480;13.354;2023-06-19T19:48:40;27.90;70.00
5027;DHT22;2532;52.480;13.354;2023-06-19T19:51:06;27.90;70.10
5027;DHT22;2532;52.480;13.354;2023-06-19T19:53:35;27.90;70.20
5027;DHT22;2532;52.480;13.354;2023-06-19T19:56:02;27.80;70.30
5027;DHT22;2532;52.480;13.354;2023-06-19T19:58:29;27.80;70.70
5027;DHT22;2532;52.480;13.354;2023-06-19T20:00:56;27.70;70.90